sensor_id;sensor_type;location;lat;lon;timestamp;pressure;altitude;pressure_sealevel;temperature;humidity
31717;BME280;18301;51.076;17.046;2023-05-08T00:03:47;101289.59;;;7.06;75.45
31717;BME280;18301;51.076;17.046;2023-05-08T00:08:49;101293.06;;;7.08;75.54
31717;BME280;18301;51.076;17.046;2023-05-08T00:13:51;101304.22;;;6.99;76.08
31717;BME280;18301;51.076;17.046;2023-05-08T00:18:52;101298.63;;;7.04;76.12
31717;BME280;18301;51.076;17.046;2023-05-08T00:23:55;101298.44;;;7.08;76.25
31717;BME280;18301;51.076;17.046;2023-05-08T00:28:56;101292.31;;;7.05;76.62
31717;BME280;18301;51.076;17.046;2023-05-08T00:33:57;101299.72;;;7.00;76.71
31717;BME280;18301;51.076;17.046;2023-05-08T00:38:59;101294.03;;;6.87;77.52
31717;BME280;18301;51.076;17.046;2023-05-08T00:44:00;101297.84;;;6.81;77.92
31717;BME280;18301;51.076;17.046;2023-05-08T00:49:04;101295.22;;;6.80;77.91
31717;BME280;18301;51.076;17.046;2023-05-08T00:54:06;101299.66;;;6.81;77.60
31717;BME280;18301;51.076;17.046;2023-05-08T00:59:10;101299.94;;;6.75;78.24
31717;BME280;18301;51.076;17.046;2023-05-08T01:04:13;101299.94;;;6.75;78.29
31717;BME280;18301;51.076;17.046;2023-05-08T01:09:15;101300.34;;;6.65;78.59
31717;BME280;18301;51.076;17.046;2023-05-08T01:14:25;101301.25;;;6.64;79.06
31717;BME280;18301;51.076;17.046;2023-05-08T01:35:26;101312.75;;;6.26;80.04
31717;BME280;18301;51.076;17.046;2023-05-08T01:40:42;101318.34;;;6.19;79.90
31717;BME280;18301;51.076;17.046;2023-05-08T01:45:47;101316.59;;;6.18;80.31
31717;BME280;18301;51.076;17.046;2023-05-08T01:50:57;101320.47;;;6.11;80.46
31717;BME280;18301;51.076;17.046;2023-05-08T01:56:07;101314.47;;;6.05;80.35
31717;BME280;18301;51.076;17.046;2023-05-08T02:01:11;101315.22;;;6.08;80.53
31717;BME280;18301;51.076;17.046;2023-05-08T02:06:15;101316.34;;;6.03;80.46
31717;BME280;18301;51.076;17.046;2023-05-08T02:11:18;101333.41;;;6.00;80.38
31717;BME280;18301;51.076;17.046;2023-05-08T02:16:22;101330.09;;;5.93;80.50
31717;BME280;18301;51.076;17.046;2023-05-08T02:21:26;101335.50;;;5.92;80.82
31717;BME280;18301;51.076;17.046;2023-05-08T02:26:30;101341.75;;;5.92;80.20
31717;BME280;18301;51.076;17.046;2023-05-08T02:31:32;101340.38;;;5.82;80.49
31717;BME280;18301;51.076;17.046;2023-05-08T02:36:36;101351.94;;;5.83;80.80
31717;BME280;18301;51.076;17.046;2023-05-08T02:41:39;101353.69;;;5.84;80.81
31717;BME280;18301;51.076;17.046;2023-05-08T02:47:01;101355.78;;;5.75;80.56
31717;BME280;18301;51.076;17.046;2023-05-08T02:52:12;101358.00;;;5.64;80.83
31717;BME280;18301;51.076;17.046;2023-05-08T02:57:34;101364.16;;;5.66;80.84
31717;BME280;18301;51.076;17.046;2023-05-08T03:02:43;101363.13;;;5.70;80.58
31717;BME280;18301;51.076;17.046;2023-05-08T03:07:50;101355.69;;;5.55;81.02
31717;BME280;18301;51.076;17.046;2023-05-08T03:12:54;101363.47;;;5.61;80.72
31717;BME280;18301;51.076;17.046;2023-05-08T03:18:01;101361.94;;;5.54;81.08
31717;BME280;18301;51.076;17.046;2023-05-08T03:23:07;101356.81;;;5.48;81.18
31717;BME280;18301;51.076;17.046;2023-05-08T03:28:10;101360.44;;;5.47;80.77
31717;BME280;18301;51.076;17.046;2023-05-08T03:33:12;101357.75;;;5.47;81.02
31717;BME280;18301;51.076;17.046;2023-05-08T03:38:14;101362.28;;;5.45;80.97
31717;BME280;18301;51.076;17.046;2023-05-08T03:43:17;101365.78;;;5.47;81.68
31717;BME280;18301;51.076;17.046;2023-05-08T03:48:20;101364.91;;;5.46;81.38
31717;BME280;18301;51.076;17.046;2023-05-08T03:53:23;101366.44;;;5.53;81.69
31717;BME280;18301;51.076;17.046;2023-05-08T03:58:43;101375.16;;;5.59;81.83
31717;BME280;18301;51.076;17.046;2023-05-08T04:03:52;101378.97;;;5.76;81.67
31717;BME280;18301;51.076;17.046;2023-05-08T04:09:06;101382.09;;;5.88;81.54
31717;BME280;18301;51.076;17.046;2023-05-08T04:14:12;101382.09;;;5.88;81.75
31717;BME280;18301;51.076;17.046;2023-05-08T04:19:23;101390.75;;;5.96;81.44
31717;BME280;18301;51.076;17.046;2023-05-08T04:24:27;101392.34;;;6.23;80.85
31717;BME280;18301;51.076;17.046;2023-05-08T04:29:31;101402.97;;;6.03;81.04
31717;BME280;18301;51.076;17.046;2023-05-08T04:34:34;101403.31;;;6.17;80.45
31717;BME280;18301;51.076;17.046;2023-05-08T04:39:35;101413.06;;;6.18;81.08
31717;BME280;18301;51.076;17.046;2023-05-08T04:44:37;101417.22;;;6.27;80.54
31717;BME280;18301;51.076;17.046;2023-05-08T04:49:38;101429.25;;;6.39;81.30
31717;BME280;18301;51.076;17.046;2023-05-08T04:54:41;101435.38;;;6.64;80.29
31717;BME280;18301;51.076;17.046;2023-05-08T04:59:42;101438.63;;;6.73;80.71
31717;BME280;18301;51.076;17.046;2023-05-08T05:04:44;101444.16;;;6.90;80.27
31717;BME280;18301;51.076;17.046;2023-05-08T05:09:45;101439.88;;;7.47;78.14
31717;BME280;18301;51.076;17.046;2023-05-08T05:14:47;101444.59;;;7.22;78.39
31717;BME280;18301;51.076;17.046;2023-05-08T05:19:48;101445.00;;;7.53;76.70
31717;BME280;18301;51.076;17.046;2023-05-08T05:24:52;101448.53;;;7.74;76.28
31717;BME280;18301;51.076;17.046;2023-05-08T05:29:53;101440.28;;;7.79;76.93
31717;BME280;18301;51.076;17.046;2023-05-08T05:34:55;101445.69;;;8.17;76.63
31717;BME280;18301;51.076;17.046;2023-05-08T05:39:57;101442.00;;;8.38;77.19
31717;BME280;18301;51.076;17.046;2023-05-08T05:44:58;101444.06;;;8.69;75.75
31717;BME280;18301;51.076;17.046;2023-05-08T05:49:59;101457.75;;;9.18;74.05
31717;BME280;18301;51.076;17.046;2023-05-08T05:55:01;101443.50;;;9.16;74.32
31717;BME280;18301;51.076;17.046;2023-05-08T06:00:04;101450.31;;;9.23;73.63
31717;BME280;18301;51.076;17.046;2023-05-08T06:05:07;101453.38;;;9.51;72.68
31717;BME280;18301;51.076;17.046;2023-05-08T06:10:09;101447.59;;;9.58;69.67
31717;BME280;18301;51.076;17.046;2023-05-08T06:15:11;101455.69;;;9.58;69.99
31717;BME280;18301;51.076;17.046;2023-05-08T06:20:15;101460.16;;;9.93;68.60
31717;BME280;18301;51.076;17.046;2023-05-08T06:25:16;101459.13;;;9.95;69.00
31717;BME280;18301;51.076;17.046;2023-05-08T06:30:18;101465.59;;;10.24;69.04
31717;BME280;18301;51.076;17.046;2023-05-08T06:35:19;101464.53;;;10.60;65.37
31717;BME280;18301;51.076;17.046;2023-05-08T06:40:21;101482.72;;;10.41;64.46
31717;BME280;18301;51.076;17.046;2023-05-08T06:45:23;101485.50;;;10.55;63.33
31717;BME280;18301;51.076;17.046;2023-05-08T06:50:25;101485.16;;;10.61;64.38
31717;BME280;18301;51.076;17.046;2023-05-08T06:55:27;101484.09;;;10.79;63.72
31717;BME280;18301;51.076;17.046;2023-05-08T07:00:28;101488.47;;;10.82;62.89
31717;BME280;18301;51.076;17.046;2023-05-08T07:05:30;101490.09;;;11.00;61.47
31717;BME280;18301;51.076;17.046;2023-05-08T07:10:31;101487.59;;;10.81;63.35
31717;BME280;18301;51.076;17.046;2023-05-08T07:15:32;101490.59;;;11.07;61.29
31717;BME280;18301;51.076;17.046;2023-05-08T07:20:34;101502.38;;;11.06;60.37
31717;BME280;18301;51.076;17.046;2023-05-08T07:25:35;101496.28;;;11.02;61.07
31717;BME280;18301;51.076;17.046;2023-05-08T07:30:37;101500.19;;;11.13;58.98
31717;BME280;18301;51.076;17.046;2023-05-08T07:35:39;101507.06;;;11.18;59.04
31717;BME280;18301;51.076;17.046;2023-05-08T07:40:41;101504.63;;;11.44;58.83
31717;BME280;18301;51.076;17.046;2023-05-08T07:45:42;101503.53;;;11.62;57.54
31717;BME280;18301;51.076;17.046;2023-05-08T07:50:44;101493.88;;;11.58;56.89
31717;BME280;18301;51.076;17.046;2023-05-08T07:55:45;101491.25;;;11.57;58.17
31717;BME280;18301;51.076;17.046;2023-05-08T08:00:47;101499.19;;;11.90;58.78
31717;BME280;18301;51.076;17.046;2023-05-08T08:05:48;101483.34;;;12.12;57.80
31717;BME280;18301;51.076;17.046;2023-05-08T08:10:50;101495.34;;;12.23;57.79
31717;BME280;18301;51.076;17.046;2023-05-08T08:15:51;101486.91;;;12.27;57.32
31717;BME280;18301;51.076;17.046;2023-05-08T08:20:53;101490.06;;;12.62;56.66
31717;BME280;18301;51.076;17.046;2023-05-08T08:25:54;101482.34;;;12.56;57.16
31717;BME280;18301;51.076;17.046;2023-05-08T08:30:56;101488.13;;;12.92;55.81
31717;BME280;18301;51.076;17.046;2023-05-08T08:35:57;101477.66;;;12.73;57.60
31717;BME280;18301;51.076;17.046;2023-05-08T08:40:59;101470.84;;;13.07;55.09
31717;BME280;18301;51.076;17.046;2023-05-08T08:46:10;101470.81;;;13.21;54.81
31717;BME280;18301;51.076;17.046;2023-05-08T08:51:24;101466.19;;;13.36;54.65
31717;BME280;18301;51.076;17.046;2023-05-08T08:56:29;101468.63;;;13.53;54.32
31717;BME280;18301;51.076;17.046;2023-05-08T09:01:38;101471.03;;;13.84;53.53
31717;BME280;18301;51.076;17.046;2023-05-08T09:06:39;101470.16;;;13.83;53.80
31717;BME280;18301;51.076;17.046;2023-05-08T09:11:42;101469.94;;;13.99;52.71
31717;BME280;18301;51.076;17.046;2023-05-08T09:16:46;101468.06;;;14.25;52.13
31717;BME280;18301;51.076;17.046;2023-05-08T09:21:48;101468.19;;;14.23;50.74
31717;BME280;18301;51.076;17.046;2023-05-08T09:26:49;101466.59;;;14.08;52.68
31717;BME280;18301;51.076;17.046;2023-05-08T09:31:51;101468.06;;;14.25;50.75
31717;BME280;18301;51.076;17.046;2023-05-08T09:37:10;101472.00;;;14.21;50.49
31717;BME280;18301;51.076;17.046;2023-05-08T09:42:12;101466.69;;;14.07;50.18
31717;BME280;18301;51.076;17.046;2023-05-08T09:47:15;101464.75;;;13.83;50.70
31717;BME280;18301;51.076;17.046;2023-05-08T09:52:17;101467.25;;;13.86;50.00
31717;BME280;18301;51.076;17.046;2023-05-08T09:57:19;101464.50;;;14.12;50.57
31717;BME280;18301;51.076;17.046;2023-05-08T10:02:20;101467.28;;;14.48;49.57
31717;BME280;18301;51.076;17.046;2023-05-08T10:07:32;101465.38;;;13.99;51.01
31717;BME280;18301;51.076;17.046;2023-05-08T10:12:34;101459.94;;;14.12;50.10
31717;BME280;18301;51.076;17.046;2023-05-08T10:18:07;101465.53;;;14.47;49.17
31717;BME280;18301;51.076;17.046;2023-05-08T10:23:10;101456.09;;;14.40;48.77
31717;BME280;18301;51.076;17.046;2023-05-08T10:28:22;101451.25;;;14.20;49.30
31717;BME280;18301;51.076;17.046;2023-05-08T10:33:30;101447.75;;;14.31;49.27
31717;BME280;18301;51.076;17.046;2023-05-08T10:38:32;101449.06;;;14.25;46.82
31717;BME280;18301;51.076;17.046;2023-05-08T10:43:35;101432.47;;;14.17;48.63
31717;BME280;18301;51.076;17.046;2023-05-08T10:54:08;101437.16;;;14.64;47.31
31717;BME280;18301;51.076;17.046;2023-05-08T10:59:19;101439.47;;;14.58;47.47
31717;BME280;18301;51.076;17.046;2023-05-08T11:04:22;101440.56;;;14.42;47.67
31717;BME280;18301;51.076;17.046;2023-05-08T11:09:28;101434.22;;;14.91;46.62
31717;BME280;18301;51.076;17.046;2023-05-08T11:14:31;101434.25;;;14.55;47.91
31717;BME280;18301;51.076;17.046;2023-05-08T11:19:34;101424.25;;;14.55;47.59
31717;BME280;18301;51.076;17.046;2023-05-08T11:24:37;101430.69;;;14.78;46.51
31717;BME280;18301;51.076;17.046;2023-05-08T11:29:39;101423.34;;;14.67;46.48
31717;BME280;18301;51.076;17.046;2023-05-08T11:39:42;101416.69;;;14.95;47.32
31717;BME280;18301;51.076;17.046;2023-05-08T11:44:44;101420.69;;;15.03;47.25
31717;BME280;18301;51.076;17.046;2023-05-08T11:49:45;101405.00;;;15.06;47.04
31717;BME280;18301;51.076;17.046;2023-05-08T11:54:47;101407.16;;;15.25;46.39
31717;BME280;18301;51.076;17.046;2023-05-08T11:59:49;101412.31;;;15.17;45.27
31717;BME280;18301;51.076;17.046;2023-05-08T12:04:51;101409.38;;;15.20;44.79
31717;BME280;18301;51.076;17.046;2023-05-08T12:09:53;101402.44;;;15.16;45.69
31717;BME280;18301;51.076;17.046;2023-05-08T12:14:54;101393.28;;;15.17;45.89
31717;BME280;18301;51.076;17.046;2023-05-08T12:19:56;101408.66;;;15.29;45.86
31717;BME280;18301;51.076;17.046;2023-05-08T12:25:05;101394.56;;;15.24;45.31
31717;BME280;18301;51.076;17.046;2023-05-08T12:30:09;101398.09;;;15.49;44.71
31717;BME280;18301;51.076;17.046;2023-05-08T12:35:12;101401.00;;;15.34;44.00
31717;BME280;18301;51.076;17.046;2023-05-08T12:40:28;101406.97;;;15.51;43.52
31717;BME280;18301;51.076;17.046;2023-05-08T12:45:33;101390.13;;;15.34;44.90
31717;BME280;18301;51.076;17.046;2023-05-08T12:50:38;101382.28;;;15.65;45.12
31717;BME280;18301;51.076;17.046;2023-05-08T12:55:49;101377.00;;;15.75;44.54
31717;BME280;18301;51.076;17.046;2023-05-08T13:01:06;101379.00;;;15.95;44.04
31717;BME280;18301;51.076;17.046;2023-05-08T13:06:18;101365.09;;;15.76;44.21
31717;BME280;18301;51.076;17.046;2023-05-08T13:11:31;101356.09;;;15.75;44.21
31717;BME280;18301;51.076;17.046;2023-05-08T13:16:43;101349.66;;;15.87;43.87
31717;BME280;18301;51.076;17.046;2023-05-08T13:21:45;101351.84;;;15.60;43.69
31717;BME280;18301;51.076;17.046;2023-05-08T13:26:48;101354.44;;;15.61;43.78
31717;BME280;18301;51.076;17.046;2023-05-08T13:31:49;101340.72;;;15.52;44.56
31717;BME280;18301;51.076;17.046;2023-05-08T13:36:51;101339.22;;;15.59;44.89
31717;BME280;18301;51.076;17.046;2023-05-08T13:41:52;101330.59;;;15.76;44.75
31717;BME280;18301;51.076;17.046;2023-05-08T13:46:54;101327.00;;;15.87;46.29
31717;BME280;18301;51.076;17.046;2023-05-08T13:51:55;101317.44;;;16.04;42.85
31717;BME280;18301;51.076;17.046;2023-05-08T13:56:57;101317.88;;;15.77;43.41
31717;BME280;18301;51.076;17.046;2023-05-08T14:01:59;101319.44;;;15.79;43.61
31717;BME280;18301;51.076;17.046;2023-05-08T14:07:00;101302.38;;;15.88;42.97
31717;BME280;18301;51.076;17.046;2023-05-08T14:12:02;101313.25;;;15.88;42.98
31717;BME280;18301;51.076;17.046;2023-05-08T14:17:04;101309.81;;;15.86;44.05
31717;BME280;18301;51.076;17.046;2023-05-08T14:22:06;101302.25;;;15.79;43.83
31717;BME280;18301;51.076;17.046;2023-05-08T14:27:07;101302.88;;;16.05;43.75
31717;BME280;18301;51.076;17.046;2023-05-08T14:32:09;101308.31;;;15.94;43.27
31717;BME280;18301;51.076;17.046;2023-05-08T14:37:11;101305.84;;;16.02;43.56
31717;BME280;18301;51.076;17.046;2023-05-08T14:42:13;101307.56;;;15.92;43.09
31717;BME280;18301;51.076;17.046;2023-05-08T14:47:23;101296.81;;;16.01;42.66
31717;BME280;18301;51.076;17.046;2023-05-08T14:52:25;101293.47;;;15.86;42.55
31717;BME280;18301;51.076;17.046;2023-05-08T14:57:26;101302.50;;;15.98;42.39
31717;BME280;18301;51.076;17.046;2023-05-08T15:02:27;101306.31;;;16.07;42.58
31717;BME280;18301;51.076;17.046;2023-05-08T15:07:29;101292.94;;;16.04;40.71
31717;BME280;18301;51.076;17.046;2023-05-08T15:12:31;101306.22;;;15.75;42.26
31717;BME280;18301;51.076;17.046;2023-05-08T15:17:33;101302.63;;;15.85;42.01
31717;BME280;18301;51.076;17.046;2023-05-08T15:22:37;101303.56;;;16.18;41.23
31717;BME280;18301;51.076;17.046;2023-05-08T15:27:39;101297.69;;;15.79;42.14
31717;BME280;18301;51.076;17.046;2023-05-08T15:32:41;101297.56;;;15.92;42.10
31717;BME280;18301;51.076;17.046;2023-05-08T15:37:43;101285.31;;;15.86;41.70
31717;BME280;18301;51.076;17.046;2023-05-08T15:42:45;101274.66;;;15.95;40.70
31717;BME280;18301;51.076;17.046;2023-05-08T15:47:46;101291.13;;;15.82;40.74
31717;BME280;18301;51.076;17.046;2023-05-08T15:52:48;101285.81;;;15.80;41.03
31717;BME280;18301;51.076;17.046;2023-05-08T15:57:50;101287.03;;;15.87;41.14
31717;BME280;18301;51.076;17.046;2023-05-08T16:02:51;101278.72;;;16.00;40.50
31717;BME280;18301;51.076;17.046;2023-05-08T16:07:53;101273.44;;;15.65;41.47
31717;BME280;18301;51.076;17.046;2023-05-08T16:12:55;101275.16;;;15.43;41.45
31717;BME280;18301;51.076;17.046;2023-05-08T16:17:58;101276.53;;;15.38;42.38
31717;BME280;18301;51.076;17.046;2023-05-08T16:22:59;101273.94;;;15.36;41.40
31717;BME280;18301;51.076;17.046;2023-05-08T16:28:01;101267.25;;;15.29;42.02
31717;BME280;18301;51.076;17.046;2023-05-08T16:33:03;101268.75;;;15.33;41.53
31717;BME280;18301;51.076;17.046;2023-05-08T16:38:04;101269.31;;;15.03;41.98
31717;BME280;18301;51.076;17.046;2023-05-08T16:43:06;101264.47;;;14.95;41.95
31717;BME280;18301;51.076;17.046;2023-05-08T16:48:08;101270.47;;;15.12;41.21
31717;BME280;18301;51.076;17.046;2023-05-08T16:53:10;101273.09;;;14.78;42.27
31717;BME280;18301;51.076;17.046;2023-05-08T16:58:12;101275.19;;;14.86;42.69
31717;BME280;18301;51.076;17.046;2023-05-08T17:03:13;101271.59;;;14.74;42.78
31717;BME280;18301;51.076;17.046;2023-05-08T17:08:15;101260.25;;;14.80;42.72
31717;BME280;18301;51.076;17.046;2023-05-08T17:13:16;101262.38;;;14.53;42.94
31717;BME280;18301;51.076;17.046;2023-05-08T17:18:18;101264.66;;;14.46;43.31
31717;BME280;18301;51.076;17.046;2023-05-08T17:23:19;101263.66;;;14.60;43.34
31717;BME280;18301;51.076;17.046;2023-05-08T17:28:21;101282.66;;;14.36;43.44
31717;BME280;18301;51.076;17.046;2023-05-08T17:33:22;101272.78;;;14.11;44.09
31717;BME280;18301;51.076;17.046;2023-05-08T17:38:24;101277.91;;;14.02;44.08
31717;BME280;18301;51.076;17.046;2023-05-08T17:43:25;101285.50;;;13.97;45.52
31717;BME280;18301;51.076;17.046;2023-05-08T17:48:28;101281.47;;;14.03;45.22
31717;BME280;18301;51.076;17.046;2023-05-08T17:53:31;101289.56;;;13.92;45.15
31717;BME280;18301;51.076;17.046;2023-05-08T17:58:32;101297.66;;;13.68;45.77
31717;BME280;18301;51.076;17.046;2023-05-08T18:03:34;101296.34;;;13.61;46.12
31717;BME280;18301;51.076;17.046;2023-05-08T18:08:36;101305.91;;;13.53;46.25
31717;BME280;18301;51.076;17.046;2023-05-08T18:13:39;101305.47;;;13.59;46.32
31717;BME280;18301;51.076;17.046;2023-05-08T18:18:41;101305.72;;;13.31;47.15
31717;BME280;18301;51.076;17.046;2023-05-08T18:23:42;101307.56;;;13.30;47.19
31717;BME280;18301;51.076;17.046;2023-05-08T18:28:44;101309.13;;;13.07;47.83
31717;BME280;18301;51.076;17.046;2023-05-08T18:33:45;101320.94;;;12.94;48.49
31717;BME280;18301;51.076;17.046;2023-05-08T18:38:47;101326.44;;;12.79;49.21
31717;BME280;18301;51.076;17.046;2023-05-08T18:43:49;101335.31;;;12.69;49.96
31717;BME280;18301;51.076;17.046;2023-05-08T18:48:50;101341.78;;;12.66;49.82
31717;BME280;18301;51.076;17.046;2023-05-08T18:53:52;101339.44;;;12.47;50.50
31717;BME280;18301;51.076;17.046;2023-05-08T18:58:54;101345.81;;;12.46;50.50
31717;BME280;18301;51.076;17.046;2023-05-08T19:03:55;101343.84;;;12.35;50.77
31717;BME280;18301;51.076;17.046;2023-05-08T19:08:57;101352.25;;;12.31;51.42
31717;BME280;18301;51.076;17.046;2023-05-08T19:13:58;101355.41;;;12.10;51.78
31717;BME280;18301;51.076;17.046;2023-05-08T19:19:00;101351.00;;;11.95;52.35
31717;BME280;18301;51.076;17.046;2023-05-08T19:24:01;101346.16;;;11.86;52.63
31717;BME280;18301;51.076;17.046;2023-05-08T19:29:03;101360.72;;;11.83;52.73
31717;BME280;18301;51.076;17.046;2023-05-08T19:34:04;101357.22;;;11.81;52.58
31717;BME280;18301;51.076;17.046;2023-05-08T19:39:06;101350.75;;;11.69;53.01
31717;BME280;18301;51.076;17.046;2023-05-08T19:44:07;101353.28;;;11.58;53.16
31717;BME280;18301;51.076;17.046;2023-05-08T19:49:09;101350.56;;;11.44;53.70
31717;BME280;18301;51.076;17.046;2023-05-08T19:54:11;101347.97;;;11.42;53.70
31717;BME280;18301;51.076;17.046;2023-05-08T19:59:12;101350.16;;;11.36;53.90
31717;BME280;18301;51.076;17.046;2023-05-08T20:04:14;101343.72;;;11.24;55.05
31717;BME280;18301;51.076;17.046;2023-05-08T20:09:15;101359.22;;;11.20;54.65
31717;BME280;18301;51.076;17.046;2023-05-08T20:14:17;101348.59;;;11.17;54.88
31717;BME280;18301;51.076;17.046;2023-05-08T20:19:18;101350.06;;;11.09;55.01
31717;BME280;18301;51.076;17.046;2023-05-08T20:24:20;101346.06;;;11.00;55.14
31717;BME280;18301;51.076;17.046;2023-05-08T20:29:22;101351.84;;;10.94;55.58
31717;BME280;18301;51.076;17.046;2023-05-08T20:34:24;101346.22;;;10.82;55.98
31717;BME280;18301;51.076;17.046;2023-05-08T20:39:26;101354.63;;;10.62;57.19
31717;BME280;18301;51.076;17.046;2023-05-08T20:44:27;101350.53;;;10.55;57.00
31717;BME280;18301;51.076;17.046;2023-05-08T20:49:29;101360.16;;;10.45;56.84
31717;BME280;18301;51.076;17.046;2023-05-08T20:54:30;101351.09;;;10.46;57.30
31717;BME280;18301;51.076;17.046;2023-05-08T20:59:31;101356.66;;;10.43;57.43
31717;BME280;18301;51.076;17.046;2023-05-08T21:04:33;101357.00;;;10.36;57.58
31717;BME280;18301;51.076;17.046;2023-05-08T21:09:34;101348.34;;;10.31;57.79
31717;BME280;18301;51.076;17.046;2023-05-08T21:14:36;101346.91;;;10.24;57.72
31717;BME280;18301;51.076;17.046;2023-05-08T21:19:37;101334.72;;;10.17;58.21
31717;BME280;18301;51.076;17.046;2023-05-08T21:24:42;101334.09;;;10.12;58.46
31717;BME280;18301;51.076;17.046;2023-05-08T21:29:44;101333.34;;;10.10;58.90
31717;BME280;18301;51.076;17.046;2023-05-08T21:34:46;101335.44;;;10.05;58.76
31717;BME280;18301;51.076;17.046;2023-05-08T21:39:47;101333.66;;;9.88;59.19
31717;BME280;18301;51.076;17.046;2023-05-08T21:44:48;101333.31;;;9.78;59.35
31717;BME280;18301;51.076;17.046;2023-05-08T21:49:50;101335.41;;;9.73;59.59
31717;BME280;18301;51.076;17.046;2023-05-08T21:54:51;101332.44;;;9.62;59.96
31717;BME280;18301;51.076;17.046;2023-05-08T21:59:53;101320.59;;;9.49;60.36
31717;BME280;18301;51.076;17.046;2023-05-08T22:04:54;101317.97;;;9.47;60.53
31717;BME280;18301;51.076;17.046;2023-05-08T22:09:56;101322.13;;;9.37;60.95
31717;BME280;18301;51.076;17.046;2023-05-08T22:14:57;101315.31;;;9.30;61.29
31717;BME280;18301;51.076;17.046;2023-05-08T22:19:59;101307.00;;;9.17;61.39
31717;BME280;18301;51.076;17.046;2023-05-08T22:25:00;101302.91;;;9.10;61.60
31717;BME280;18301;51.076;17.046;2023-05-08T22:30:02;101313.84;;;9.07;62.07
31717;BME280;18301;51.076;17.046;2023-05-08T22:35:05;101307.53;;;8.90;62.59
31717;BME280;18301;51.076;17.046;2023-05-08T22:40:07;101305.56;;;8.76;62.49
31717;BME280;18301;51.076;17.046;2023-05-08T22:45:09;101295.97;;;8.71;63.21
31717;BME280;18301;51.076;17.046;2023-05-08T22:50:12;101295.66;;;8.77;62.59
31717;BME280;18301;51.076;17.046;2023-05-08T22:55:13;101291.16;;;8.78;62.61
31717;BME280;18301;51.076;17.046;2023-05-08T23:00:16;101293.44;;;8.85;62.98
31717;BME280;18301;51.076;17.046;2023-05-08T23:05:18;101290.69;;;8.87;62.62
31717;BME280;18301;51.076;17.046;2023-05-08T23:10:19;101291.56;;;8.87;62.86
31717;BME280;18301;51.076;17.046;2023-05-08T23:15:20;101286.16;;;8.87;63.02
31717;BME280;18301;51.076;17.046;2023-05-08T23:20:22;101294.63;;;8.80;63.28
31717;BME280;18301;51.076;17.046;2023-05-08T23:25:24;101283.31;;;8.73;63.36
31717;BME280;18301;51.076;17.046;2023-05-08T23:30:25;101284.81;;;8.61;63.48
31717;BME280;18301;51.076;17.046;2023-05-08T23:35:27;101288.31;;;8.63;63.33
31717;BME280;18301;51.076;17.046;2023-05-08T23:40:28;101278.72;;;8.58;63.71
31717;BME280;18301;51.076;17.046;2023-05-08T23:45:30;101274.84;;;8.46;63.75
31717;BME280;18301;51.076;17.046;2023-05-08T23:50:31;101274.28;;;8.39;64.28
31717;BME280;18301;51.076;17.046;2023-05-08T23:55:36;101267.31;;;8.35;64.34
